createdAt,value
2022-12-05T00:01:42.943Z,17.38
2022-12-05T00:03:45.234Z,19.95
2022-12-05T00:05:47.384Z,20.83
2022-12-05T00:07:49.402Z,20.65
2022-12-05T00:09:51.240Z,18.17
2022-12-05T00:11:53.071Z,19.30
2022-12-05T00:13:56.020Z,18.60
2022-12-05T00:15:57.773Z,18.58
2022-12-05T00:17:59.533Z,19.83
2022-12-05T00:20:01.550Z,20.10
2022-12-05T00:22:03.669Z,19.17
2022-12-05T00:24:07.383Z,19.57
2022-12-05T00:26:09.795Z,19.20
2022-12-05T00:28:11.524Z,19.80
2022-12-05T00:30:13.542Z,19.77
2022-12-05T00:32:15.382Z,17.92
2022-12-05T00:34:17.182Z,19.02
2022-12-05T00:36:26.323Z,18.20
2022-12-05T00:38:28.199Z,18.02
2022-12-05T00:40:29.931Z,21.45
2022-12-05T00:42:31.681Z,18.48
2022-12-05T00:44:33.506Z,19.40
2022-12-05T00:46:35.983Z,18.60
2022-12-05T00:50:39.526Z,20.33
2022-12-05T00:52:41.362Z,21.30
2022-12-05T00:54:43.315Z,20.70
2022-12-05T00:56:45.856Z,22.48
2022-12-05T01:00:50.060Z,23.45
2022-12-05T01:02:51.926Z,22.90
2022-12-05T01:04:53.752Z,22.20
2022-12-05T01:06:57.423Z,22.88
2022-12-05T01:08:59.799Z,21.83
2022-12-05T01:11:02.760Z,21.85
2022-12-05T01:13:04.536Z,24.25
2022-12-05T01:15:06.892Z,24.88
2022-12-05T01:17:09.906Z,21.25
2022-12-05T01:19:23.860Z,37.40
2022-12-05T01:21:25.918Z,22.63
2022-12-05T01:23:27.628Z,26.38
2022-12-05T01:25:29.320Z,22.53
2022-12-05T01:27:31.118Z,22.37
2022-12-05T01:29:32.901Z,22.38
2022-12-05T01:31:36.873Z,25.23
2022-12-05T01:33:38.685Z,28.42
2022-12-05T01:35:41.452Z,24.70
2022-12-05T01:37:43.201Z,21.00
2022-12-05T01:39:45.020Z,24.05
2022-12-05T01:41:48.888Z,21.45
2022-12-05T01:43:59.695Z,24.13
2022-12-05T01:46:01.475Z,20.70
2022-12-05T01:48:11.480Z,20.77
2022-12-05T01:50:13.600Z,20.95
2022-12-05T01:52:20.063Z,23.98
2022-12-05T01:54:23.143Z,21.98
2022-12-05T01:56:25.003Z,26.38
2022-12-05T01:58:31.475Z,24.02
2022-12-05T02:00:33.473Z,21.15
2022-12-05T02:02:35.325Z,22.15
2022-12-05T02:04:45.216Z,25.33
2022-12-05T02:06:47.509Z,26.75
2022-12-05T02:08:50.972Z,25.98
2022-12-05T02:10:56.164Z,24.50
2022-12-05T02:13:09.778Z,23.83
2022-12-05T02:15:29.592Z,21.42
2022-12-05T02:18:01.392Z,26.55
2022-12-05T02:20:24.255Z,28.50
2022-12-05T02:22:54.146Z,21.85
2022-12-05T02:25:21.032Z,24.95
2022-12-05T02:27:49.441Z,25.20
2022-12-05T02:30:05.552Z,25.15
2022-12-05T02:32:20.166Z,28.08
2022-12-05T02:34:46.379Z,24.20
2022-12-05T02:37:14.820Z,25.95
2022-12-05T02:40:04.722Z,28.17
2022-12-05T02:42:16.753Z,28.65
2022-12-05T02:44:39.577Z,28.40
2022-12-05T02:46:43.012Z,27.15
2022-12-05T02:48:48.214Z,29.00
2022-12-05T02:50:51.977Z,26.85
2022-12-05T02:52:56.574Z,32.47
2022-12-05T02:54:59.858Z,34.05
2022-12-05T02:57:01.875Z,34.80
2022-12-05T02:59:04.104Z,35.45
2022-12-05T03:01:06.999Z,34.60
2022-12-05T03:03:16.040Z,37.08
2022-12-05T03:05:41.348Z,40.38
2022-12-05T03:07:47.719Z,34.83
2022-12-05T03:10:00.327Z,35.03
2022-12-05T03:12:22.261Z,35.15
2022-12-05T03:14:29.469Z,35.53
2022-12-05T03:16:49.026Z,35.65
2022-12-05T03:18:56.337Z,33.38
2022-12-05T03:21:17.807Z,34.85
2022-12-05T03:23:32.007Z,34.90
2022-12-05T03:26:11.971Z,37.95
2022-12-05T03:28:25.381Z,34.20
2022-12-05T03:30:27.171Z,34.33
2022-12-05T03:32:38.562Z,33.28
2022-12-05T03:34:43.517Z,36.95
2022-12-05T03:36:49.630Z,35.65
2022-12-05T03:38:59.276Z,34.13
2022-12-05T03:41:23.129Z,35.97
2022-12-05T03:43:35.197Z,35.85
2022-12-05T03:45:58.562Z,37.13
2022-12-05T03:48:16.796Z,37.50
2022-12-05T03:50:27.598Z,32.65
2022-12-05T03:52:29.285Z,40.97
2022-12-05T03:54:45.381Z,39.63
2022-12-05T03:56:52.833Z,40.75
2022-12-05T03:59:06.321Z,33.80
2022-12-05T04:01:10.200Z,38.92
2022-12-05T04:03:24.373Z,41.30
2022-12-05T04:05:41.103Z,39.00
2022-12-05T04:07:46.338Z,39.15
2022-12-05T04:09:55.906Z,36.75
2022-12-05T04:12:05.029Z,37.38
2022-12-05T04:14:17.826Z,36.17
2022-12-05T04:18:50.986Z,34.83
2022-12-05T04:21:12.806Z,36.25
2022-12-05T04:23:14.866Z,36.55
2022-12-05T04:25:33.275Z,36.53
2022-12-05T04:27:45.534Z,35.58
2022-12-05T04:30:07.627Z,35.88
2022-12-05T04:32:11.888Z,36.00
2022-12-05T04:34:15.953Z,38.30
2022-12-05T04:36:25.566Z,32.40
2022-12-05T04:38:32.679Z,30.58
2022-12-05T04:40:40.511Z,32.65
2022-12-05T04:42:43.402Z,30.05
2022-12-05T04:44:52.229Z,28.33
2022-12-05T04:46:56.014Z,27.05
2022-12-05T04:49:00.926Z,25.02
2022-12-05T04:51:04.387Z,27.25
2022-12-05T04:53:08.847Z,25.40
2022-12-05T04:55:14.021Z,22.38
2022-12-05T04:57:24.901Z,25.48
2022-12-05T04:59:26.654Z,25.90
2022-12-05T05:01:35.853Z,23.65
2022-12-05T05:03:43.317Z,21.40
2022-12-05T05:05:51.702Z,25.42
2022-12-05T05:07:55.135Z,21.48
2022-12-05T05:09:57.805Z,24.13
2022-12-05T05:11:59.745Z,24.00
2022-12-05T05:14:02.444Z,26.38
2022-12-05T05:16:04.717Z,21.45
2022-12-05T05:18:06.569Z,28.65
2022-12-05T05:20:23.780Z,28.50
2022-12-05T05:22:25.512Z,26.08
2022-12-05T05:24:27.557Z,25.57
2022-12-05T05:26:30.617Z,24.73
2022-12-05T05:28:32.369Z,22.25
2022-12-05T05:30:34.139Z,23.10
2022-12-05T05:32:35.896Z,25.63
2022-12-05T05:34:37.648Z,22.42
2022-12-05T05:36:39.697Z,26.30
2022-12-05T05:38:47.494Z,22.58
2022-12-05T05:40:49.277Z,23.17
2022-12-05T05:42:51.166Z,24.30
2022-12-05T05:44:52.864Z,23.20
2022-12-05T05:46:54.886Z,22.33
2022-12-05T05:48:57.073Z,25.25
2022-12-05T05:51:00.222Z,25.17
2022-12-05T05:53:01.952Z,24.83
2022-12-05T05:55:05.235Z,23.10
2022-12-05T05:57:07.098Z,23.98
2022-12-05T05:59:09.917Z,28.80
2022-12-05T06:01:17.980Z,26.75
2022-12-05T06:03:19.832Z,21.95
2022-12-05T06:05:21.668Z,22.48
2022-12-05T06:07:23.431Z,24.40
2022-12-05T06:09:25.200Z,23.63
2022-12-05T06:11:28.348Z,25.75
2022-12-05T06:13:30.106Z,24.58
2022-12-05T06:15:31.903Z,26.77
2022-12-05T06:17:33.701Z,26.45
2022-12-05T06:19:35.417Z,28.13
2022-12-05T06:21:37.185Z,25.83
2022-12-05T06:23:39.533Z,23.43
2022-12-05T06:25:46.828Z,25.40
2022-12-05T06:27:48.594Z,26.45
2022-12-05T06:29:50.464Z,25.40
2022-12-05T06:31:52.292Z,21.50
2022-12-05T06:33:54.314Z,22.88
2022-12-05T06:36:11.689Z,27.90
2022-12-05T06:38:13.999Z,21.40
2022-12-05T06:40:15.768Z,22.98
2022-12-05T06:42:17.627Z,25.02
2022-12-05T06:44:20.398Z,21.65
2022-12-05T06:46:22.759Z,23.13
2022-12-05T06:48:24.738Z,22.02
2022-12-05T06:50:26.519Z,20.60
2022-12-05T06:52:28.237Z,19.53
2022-12-05T06:54:29.979Z,23.17
2022-12-05T06:56:31.802Z,21.00
2022-12-05T06:58:33.686Z,19.42
2022-12-05T07:00:54.069Z,19.73
2022-12-05T07:02:55.823Z,18.55
2022-12-05T07:04:57.733Z,22.60
2022-12-05T07:07:02.037Z,20.50
2022-12-05T07:09:05.192Z,20.95
2022-12-05T07:11:07.338Z,18.27
2022-12-05T07:13:13.016Z,19.58
2022-12-05T07:15:17.467Z,21.13
2022-12-05T07:17:20.715Z,20.20
2022-12-05T07:19:22.479Z,19.25
2022-12-05T07:21:24.807Z,22.23
2022-12-05T07:23:27.416Z,22.52
2022-12-05T07:27:31.332Z,19.30
2022-12-05T07:29:33.179Z,20.73
2022-12-05T07:31:36.657Z,20.17
2022-12-05T07:33:38.728Z,22.20
2022-12-05T07:35:40.475Z,21.75
2022-12-05T07:37:42.308Z,23.57
2022-12-05T07:39:44.365Z,23.42
2022-12-05T07:41:46.195Z,20.02
2022-12-05T07:43:47.906Z,20.55
2022-12-05T07:45:49.936Z,23.80
2022-12-05T07:47:51.867Z,21.42
2022-12-05T07:49:53.643Z,22.13
2022-12-05T07:51:55.361Z,21.50
2022-12-05T07:53:59.635Z,20.33
2022-12-05T07:56:02.734Z,19.75
2022-12-05T07:58:04.548Z,20.50
2022-12-05T08:00:06.988Z,19.75
2022-12-05T08:02:09.442Z,21.05
2022-12-05T08:04:15.245Z,20.98
2022-12-05T08:06:23.329Z,20.08
2022-12-05T08:08:25.082Z,20.55
2022-12-05T08:10:26.863Z,21.60
2022-12-05T08:12:28.603Z,23.53
2022-12-05T08:14:30.382Z,18.97
2022-12-05T08:16:32.929Z,21.70
2022-12-05T08:18:34.793Z,23.65
2022-12-05T08:20:36.499Z,24.77
2022-12-05T08:22:38.306Z,23.38
2022-12-05T08:24:40.109Z,23.07
2022-12-05T08:26:41.997Z,24.83
2022-12-05T08:28:45.162Z,22.35
2022-12-05T08:30:46.942Z,22.23
2022-12-05T08:32:48.935Z,22.27
2022-12-05T08:34:51.195Z,19.77
2022-12-05T08:36:52.935Z,22.88
2022-12-05T08:38:59.521Z,24.10
2022-12-05T08:41:02.556Z,21.35
2022-12-05T08:43:04.343Z,24.42
2022-12-05T08:45:06.735Z,21.48
2022-12-05T08:47:08.539Z,24.63
2022-12-05T08:49:11.764Z,21.27
2022-12-05T08:51:14.168Z,22.02
2022-12-05T08:53:16.413Z,20.67
2022-12-05T08:55:18.131Z,22.73
2022-12-05T08:57:19.883Z,20.90
2022-12-05T08:59:21.687Z,22.23
2022-12-05T09:01:25.667Z,25.00
2022-12-05T09:03:27.439Z,24.15
2022-12-05T09:05:29.823Z,21.13
2022-12-05T09:09:33.841Z,22.05
2022-12-05T09:11:40.939Z,22.80
2022-12-05T09:13:42.797Z,20.17
2022-12-05T09:15:44.579Z,24.77
2022-12-05T09:17:46.366Z,21.47
2022-12-05T09:19:52.158Z,19.33
2022-12-05T09:21:54.833Z,20.60
2022-12-05T09:26:02.354Z,19.17
2022-12-05T09:28:04.283Z,20.20
2022-12-05T09:30:07.972Z,25.30
2022-12-05T09:32:10.965Z,24.77
2022-12-05T09:34:14.946Z,22.08
2022-12-05T09:36:23.176Z,23.42
2022-12-05T09:38:25.074Z,24.73
2022-12-05T09:40:26.836Z,23.02
2022-12-05T09:43:00.519Z,22.67
2022-12-05T09:45:11.286Z,21.77
2022-12-05T09:47:31.178Z,22.42
2022-12-05T09:49:34.251Z,20.48
2022-12-05T09:51:40.422Z,22.45
2022-12-05T09:53:44.762Z,20.13
2022-12-05T09:55:49.432Z,22.17
2022-12-05T09:57:58.097Z,19.60
2022-12-05T10:00:01.684Z,20.92
2022-12-05T10:02:22.240Z,20.75
2022-12-05T10:04:39.578Z,22.15
2022-12-05T10:07:17.003Z,22.27
2022-12-05T10:09:55.929Z,21.90
2022-12-05T10:11:57.655Z,21.58
2022-12-05T10:14:29.754Z,22.53
2022-12-05T10:16:55.042Z,22.10
2022-12-05T10:19:02.747Z,24.80
2022-12-05T10:21:23.213Z,21.80
2022-12-05T10:23:56.102Z,22.88
2022-12-05T10:25:56.022Z,22.13
2022-12-05T10:28:01.670Z,20.60
2022-12-05T10:30:06.572Z,17.38
2022-12-05T10:32:15.259Z,19.90
2022-12-05T10:34:40.023Z,23.30
2022-12-05T10:36:53.413Z,19.40
2022-12-05T10:38:57.327Z,20.80
2022-12-05T10:41:03.918Z,20.80
2022-12-05T10:43:08.308Z,20.42
2022-12-05T10:45:22.380Z,22.50
2022-12-05T10:47:24.156Z,26.13
2022-12-05T10:49:27.312Z,26.43
2022-12-05T10:51:34.052Z,19.73
2022-12-05T10:53:52.655Z,21.95
2022-12-05T10:56:28.913Z,21.02
2022-12-05T10:58:24.133Z,18.23
2022-12-05T11:00:30.614Z,21.73
2022-12-05T11:02:34.324Z,22.73
2022-12-05T11:04:45.156Z,21.23
2022-12-05T11:06:57.566Z,20.02
2022-12-05T11:09:13.211Z,17.98
2022-12-05T11:11:23.736Z,16.58
2022-12-05T11:13:26.385Z,17.75
2022-12-05T11:17:39.128Z,18.00
2022-12-05T11:19:40.932Z,18.77
2022-12-05T11:21:43.858Z,17.67
2022-12-05T11:23:46.345Z,19.67
2022-12-05T11:25:48.228Z,18.75
2022-12-05T11:27:50.064Z,19.10
2022-12-05T11:29:57.006Z,17.15
2022-12-05T11:31:59.521Z,20.50
2022-12-05T11:34:23.801Z,17.15
2022-12-05T11:36:39.604Z,19.25
2022-12-05T11:38:42.122Z,15.32
2022-12-05T11:40:50.036Z,18.77
2022-12-05T11:43:22.575Z,14.38
2022-12-05T11:46:08.583Z,16.97
2022-12-05T11:48:16.062Z,19.48
2022-12-05T11:50:40.959Z,20.23
2022-12-05T11:52:56.439Z,18.23
2022-12-05T11:55:36.261Z,18.55
2022-12-05T11:57:41.081Z,16.83
2022-12-05T12:00:19.482Z,16.75
2022-12-05T12:02:36.288Z,16.40
2022-12-05T12:04:56.880Z,16.65
2022-12-05T12:07:07.971Z,17.48
2022-12-05T12:09:15.642Z,17.98
2022-12-05T12:11:17.376Z,22.00
2022-12-05T12:13:46.519Z,18.03
2022-12-05T12:16:03.817Z,17.10
2022-12-05T12:18:34.833Z,15.60
2022-12-05T12:20:58.465Z,15.65
2022-12-05T12:23:08.587Z,15.10
2022-12-05T12:25:29.097Z,17.02
2022-12-05T12:28:15.318Z,13.10
2022-12-05T12:30:37.342Z,15.18
2022-12-05T12:33:08.405Z,13.95
2022-12-05T12:35:29.873Z,15.85
2022-12-05T12:38:02.441Z,13.13
2022-12-05T12:40:27.588Z,15.80
2022-12-05T12:42:51.177Z,10.13
2022-12-05T12:45:01.784Z,14.23
2022-12-05T12:47:11.338Z,11.93
2022-12-05T12:49:22.104Z,13.63
2022-12-05T12:51:24.068Z,11.45
2022-12-05T12:53:53.151Z,9.18
2022-12-05T12:56:12.975Z,9.23
2022-12-05T12:58:14.724Z,10.93
2022-12-05T13:00:45.950Z,12.50
2022-12-05T13:03:03.441Z,8.98
2022-12-05T13:05:35.921Z,9.43
2022-12-05T13:08:01.997Z,8.38
2022-12-05T13:10:12.641Z,10.38
2022-12-05T13:12:17.324Z,9.10
2022-12-05T13:14:25.191Z,6.78
2022-12-05T13:16:41.132Z,7.90
2022-12-05T13:18:47.308Z,7.53
2022-12-05T13:21:00.942Z,7.50
2022-12-05T13:23:07.858Z,7.72
2022-12-05T13:25:17.340Z,9.30
2022-12-05T13:27:21.858Z,6.65
2022-12-05T13:29:33.334Z,7.43
2022-12-05T13:31:40.765Z,8.85
2022-12-05T13:33:46.968Z,6.85
2022-12-05T13:36:07.594Z,7.10
2022-12-05T13:38:59.530Z,8.65
2022-12-05T13:41:20.053Z,7.55
2022-12-05T13:43:27.947Z,6.72
2022-12-05T13:45:30.123Z,6.57
2022-12-05T13:48:00.504Z,6.10
2022-12-05T13:50:56.506Z,6.25
2022-12-05T13:53:26.480Z,7.53
2022-12-05T13:55:37.721Z,6.47
2022-12-05T13:57:39.431Z,6.68
2022-12-05T14:00:07.946Z,6.00
2022-12-05T14:02:41.799Z,6.35
2022-12-05T14:04:51.035Z,7.07
2022-12-05T14:06:57.927Z,4.82
2022-12-05T14:08:59.774Z,5.43
2022-12-05T14:11:01.509Z,5.18
2022-12-05T14:13:26.955Z,5.27
2022-12-05T14:15:43.000Z,9.85
2022-12-05T14:17:45.299Z,4.90
2022-12-05T14:20:01.854Z,4.13
2022-12-05T14:22:43.137Z,5.28
2022-12-05T14:25:37.518Z,4.80
2022-12-05T14:28:02.155Z,4.85
2022-12-05T14:30:33.470Z,4.88
2022-12-05T14:32:44.230Z,5.18
2022-12-05T14:35:11.431Z,7.20
2022-12-05T14:37:16.192Z,5.97
2022-12-05T14:39:42.201Z,7.90
2022-12-05T14:41:44.945Z,7.15
2022-12-05T14:43:53.722Z,8.30
2022-12-05T14:46:08.560Z,5.50
2022-12-05T14:48:13.285Z,4.95
2022-12-05T14:50:35.002Z,3.97
2022-12-05T14:52:38.758Z,4.65
2022-12-05T14:54:40.961Z,4.95
2022-12-05T14:56:48.819Z,4.68
2022-12-05T14:58:56.861Z,6.90
2022-12-05T15:01:01.980Z,6.10
2022-12-05T15:03:05.888Z,5.75
2022-12-05T15:05:29.880Z,5.68
2022-12-05T15:07:36.604Z,9.68
2022-12-05T15:10:15.358Z,4.95
2022-12-05T15:12:23.165Z,5.55
2022-12-05T15:14:31.445Z,6.22
2022-12-05T15:16:38.125Z,6.40
2022-12-05T15:18:39.872Z,5.65
2022-12-05T15:20:52.183Z,5.73
2022-12-05T15:22:54.198Z,5.97
2022-12-05T15:24:56.171Z,8.45
2022-12-05T15:26:59.405Z,6.93
2022-12-05T15:29:07.094Z,8.57
2022-12-05T15:31:13.375Z,6.28
2022-12-05T15:33:15.162Z,6.63
2022-12-05T15:35:17.281Z,7.03
2022-12-05T15:37:23.249Z,6.85
2022-12-05T15:39:26.445Z,7.03
2022-12-05T15:41:28.165Z,8.40
2022-12-05T15:43:37.371Z,8.67
2022-12-05T15:45:39.256Z,6.88
2022-12-05T15:47:45.111Z,7.25
2022-12-05T15:49:47.121Z,4.57
2022-12-05T15:51:56.788Z,4.88
2022-12-05T15:54:11.629Z,4.22
2022-12-05T15:56:40.064Z,4.18
2022-12-05T15:59:00.009Z,5.70
2022-12-05T16:01:16.588Z,4.10
2022-12-05T16:03:26.803Z,3.72
2022-12-05T16:05:39.374Z,4.32
2022-12-05T16:07:41.399Z,3.95
2022-12-05T16:09:45.682Z,4.15
2022-12-05T16:12:00.111Z,4.53
2022-12-05T16:14:04.827Z,3.60
2022-12-05T16:16:07.135Z,3.63
2022-12-05T16:18:30.281Z,4.28
2022-12-05T16:20:34.930Z,3.90
2022-12-05T16:22:36.664Z,5.03
2022-12-05T16:24:46.007Z,4.97
2022-12-05T16:27:07.159Z,5.35
2022-12-05T16:29:28.302Z,4.45
2022-12-05T16:31:32.200Z,4.75
2022-12-05T16:33:36.665Z,4.38
2022-12-05T16:35:46.024Z,4.68
2022-12-05T16:37:47.846Z,5.30
2022-12-05T16:39:49.713Z,4.57
2022-12-05T16:41:52.147Z,4.00
2022-12-05T16:43:54.068Z,4.00
2022-12-05T16:46:09.344Z,3.75
2022-12-05T16:48:23.143Z,4.35
2022-12-05T16:50:34.869Z,4.15
2022-12-05T16:52:36.663Z,4.78
2022-12-05T16:54:38.502Z,3.97
2022-12-05T16:56:40.316Z,4.32
2022-12-05T16:58:42.523Z,3.53
2022-12-05T17:00:44.320Z,6.28
2022-12-05T17:02:49.088Z,4.27
2022-12-05T17:04:52.869Z,4.25
2022-12-05T17:06:54.941Z,5.07
2022-12-05T17:08:56.706Z,3.80
2022-12-05T17:10:58.978Z,4.47
2022-12-05T17:13:02.901Z,3.63
2022-12-05T17:15:04.999Z,3.17
2022-12-05T17:17:13.469Z,2.90
2022-12-05T17:19:15.242Z,2.92
2022-12-05T17:21:21.741Z,3.07
2022-12-05T17:23:23.579Z,2.97
2022-12-05T17:25:36.184Z,3.50
2022-12-05T17:27:37.930Z,5.25
2022-12-05T17:29:39.750Z,5.50
2022-12-05T17:31:41.713Z,5.82
2022-12-05T17:33:44.562Z,4.50
2022-12-05T17:35:46.911Z,4.32
2022-12-05T17:37:50.096Z,4.28
2022-12-05T17:39:51.878Z,4.28
2022-12-05T17:41:53.620Z,5.30
2022-12-05T17:43:55.401Z,4.03
2022-12-05T17:46:00.370Z,4.00
2022-12-05T17:48:02.098Z,4.22
2022-12-05T17:50:05.454Z,4.47
2022-12-05T17:52:23.840Z,4.32
2022-12-05T17:54:26.727Z,3.85
2022-12-05T17:56:31.235Z,4.90
2022-12-05T17:58:33.358Z,5.80
2022-12-05T18:00:35.380Z,5.47
2022-12-05T18:02:37.199Z,4.43
2022-12-05T18:04:39.092Z,4.85
2022-12-05T18:06:40.869Z,4.63
2022-12-05T18:08:44.833Z,5.30
2022-12-05T18:10:48.817Z,4.95
2022-12-05T18:12:51.077Z,4.82
2022-12-05T18:14:52.851Z,7.32
2022-12-05T18:16:54.927Z,7.40
2022-12-05T18:18:56.764Z,5.93
2022-12-05T18:21:10.084Z,5.00
2022-12-05T18:23:12.277Z,6.80
2022-12-05T18:25:14.044Z,6.72
2022-12-05T18:27:16.105Z,4.30
2022-12-05T18:29:18.030Z,6.40
2022-12-05T18:31:20.055Z,5.03
2022-12-05T18:33:21.918Z,5.55
2022-12-05T18:35:40.357Z,5.57
2022-12-05T18:37:42.234Z,6.72
2022-12-05T18:39:44.240Z,6.40
2022-12-05T18:41:45.994Z,7.60
2022-12-05T18:43:47.722Z,6.53
2022-12-05T18:45:55.645Z,6.03
2022-12-05T18:48:09.733Z,5.28
2022-12-05T18:50:17.933Z,5.30
2022-12-05T18:52:19.707Z,5.53
2022-12-05T18:54:21.557Z,5.90
2022-12-05T18:56:26.675Z,6.57
2022-12-05T18:58:29.202Z,9.35
2022-12-05T19:00:31.567Z,7.15
2022-12-05T19:02:33.499Z,6.60
2022-12-05T19:04:35.464Z,5.57
2022-12-05T19:06:39.272Z,5.05
2022-12-05T19:08:41.999Z,4.35
2022-12-05T19:10:43.937Z,4.50
2022-12-05T19:12:45.769Z,6.97
2022-12-05T19:14:47.528Z,6.53
2022-12-05T19:16:58.025Z,5.50
2022-12-05T19:19:03.608Z,4.22
2022-12-05T19:21:05.593Z,4.15
2022-12-05T19:23:07.375Z,4.13
2022-12-05T19:25:09.382Z,4.13
2022-12-05T19:27:11.197Z,4.65
2022-12-05T19:29:13.783Z,3.85
2022-12-05T19:33:21.461Z,3.38
2022-12-05T19:35:23.245Z,3.55
2022-12-05T19:37:25.024Z,3.57
2022-12-05T19:39:27.317Z,6.47
2022-12-05T19:41:30.168Z,7.03
2022-12-05T19:43:36.581Z,4.95
2022-12-05T19:45:39.098Z,4.78
2022-12-05T19:49:42.529Z,7.00
2022-12-05T19:51:45.038Z,5.90
2022-12-05T19:53:47.693Z,3.35
2022-12-05T19:57:51.501Z,4.57
2022-12-05T19:59:53.568Z,4.68
2022-12-05T20:01:55.348Z,5.38
2022-12-05T20:04:00.801Z,3.90
2022-12-05T20:06:02.744Z,4.95
2022-12-05T20:08:04.739Z,6.57
2022-12-05T20:10:06.911Z,4.47
2022-12-05T20:12:08.745Z,4.43
2022-12-05T20:14:12.580Z,5.07
2022-12-05T20:16:16.185Z,4.57
2022-12-05T20:18:17.984Z,4.40
2022-12-05T20:20:19.719Z,4.50
2022-12-05T20:22:21.490Z,4.50
2022-12-05T20:24:23.252Z,4.95
2022-12-05T20:26:28.604Z,5.77
2022-12-05T20:28:30.645Z,7.40
2022-12-05T20:30:33.232Z,6.00
2022-12-05T20:34:37.179Z,8.38
2022-12-05T20:36:39.403Z,5.13
2022-12-05T20:38:41.863Z,5.65
2022-12-05T20:40:43.658Z,9.20
2022-12-05T20:42:46.901Z,6.82
2022-12-05T20:44:48.816Z,4.38
2022-12-05T20:46:51.462Z,6.30
2022-12-05T20:50:55.632Z,7.25
2022-12-05T20:52:57.887Z,6.43
2022-12-05T20:54:59.672Z,7.10
2022-12-05T20:57:03.076Z,8.27
2022-12-05T20:59:07.430Z,5.05
2022-12-05T21:01:10.681Z,5.07
2022-12-05T21:03:17.166Z,4.82
2022-12-05T21:05:19.220Z,5.10
2022-12-05T21:07:21.047Z,6.50
2022-12-05T21:09:30.077Z,5.32
2022-12-05T21:11:32.580Z,7.03
2022-12-05T21:13:34.768Z,6.20
2022-12-05T21:15:37.284Z,7.53
2022-12-05T21:19:40.693Z,5.28
2022-12-05T21:21:42.465Z,7.17
2022-12-05T21:23:45.866Z,5.30
2022-12-05T21:25:47.610Z,4.40
2022-12-05T21:27:49.380Z,4.40
2022-12-05T21:29:51.107Z,4.97
2022-12-05T21:31:52.905Z,5.70
2022-12-05T21:33:56.907Z,4.35
2022-12-05T21:35:58.702Z,4.53
2022-12-05T21:38:01.065Z,6.40
2022-12-05T21:40:03.805Z,6.50
2022-12-05T21:42:05.586Z,4.68
2022-12-05T21:44:07.875Z,6.65
2022-12-05T21:46:09.643Z,7.70
2022-12-05T21:48:11.452Z,7.43
2022-12-05T21:50:13.339Z,5.67
2022-12-05T21:52:15.289Z,5.82
2022-12-05T21:54:17.008Z,6.30
2022-12-05T21:56:23.009Z,7.03
2022-12-05T21:58:24.888Z,5.57
2022-12-05T22:00:26.697Z,5.30
2022-12-05T22:02:28.498Z,4.10
2022-12-05T22:04:30.221Z,4.45
2022-12-05T22:06:33.835Z,7.37
2022-12-05T22:08:37.092Z,5.03
2022-12-05T22:10:38.874Z,5.93
2022-12-05T22:12:40.595Z,6.43
2022-12-05T22:14:42.387Z,4.90
2022-12-05T22:16:44.251Z,4.37
2022-12-05T22:18:46.793Z,5.63
2022-12-05T22:20:58.411Z,5.30
2022-12-05T22:23:00.179Z,4.45
2022-12-05T22:25:02.076Z,4.60
2022-12-05T22:27:03.822Z,6.28
2022-12-05T22:29:05.627Z,6.05
2022-12-05T22:31:10.010Z,4.78
2022-12-05T22:33:11.945Z,3.70
2022-12-05T22:35:13.802Z,5.45
2022-12-05T22:37:15.512Z,4.18
2022-12-05T22:39:17.431Z,5.57
2022-12-05T22:41:21.672Z,4.75
2022-12-05T22:43:24.771Z,4.93
2022-12-05T22:45:26.557Z,4.18
2022-12-05T22:47:28.291Z,4.75
2022-12-05T22:49:30.059Z,4.20
2022-12-05T22:51:32.611Z,5.17
2022-12-05T22:55:36.455Z,4.95
2022-12-05T22:57:38.191Z,4.28
2022-12-05T22:59:39.881Z,5.53
2022-12-05T23:01:41.677Z,4.85
2022-12-05T23:03:44.972Z,6.32
2022-12-05T23:05:46.736Z,5.35
2022-12-05T23:07:48.522Z,5.93
2022-12-05T23:09:50.788Z,5.97
2022-12-05T23:11:52.548Z,5.10
2022-12-05T23:14:01.468Z,6.77
2022-12-05T23:16:12.480Z,6.53
2022-12-05T23:18:14.633Z,7.93
2022-12-05T23:20:16.487Z,7.70
2022-12-05T23:22:18.227Z,6.55
2022-12-05T23:24:20.004Z,6.87
2022-12-05T23:26:24.443Z,8.30
2022-12-05T23:28:26.199Z,6.97
2022-12-05T23:30:28.003Z,9.80
2022-12-05T23:32:29.714Z,7.90
2022-12-05T23:34:31.446Z,8.00
2022-12-05T23:36:34.060Z,9.43
2022-12-05T23:40:38.414Z,8.20
2022-12-05T23:42:40.193Z,8.60
2022-12-05T23:44:41.939Z,7.75
2022-12-05T23:46:43.731Z,8.10
2022-12-05T23:48:45.587Z,8.15
2022-12-05T23:51:18.299Z,10.70
2022-12-05T23:53:20.074Z,8.60
2022-12-05T23:55:21.798Z,7.35
2022-12-05T23:57:23.554Z,8.27
2022-12-05T23:59:25.280Z,7.22
